FNME

Details ICAO FNME (SPP)
Name MENONGUE
Region Angola
Timezone Africa/Luanda (UTC+1.0)
Plans Departing 0
Arriving 3
Stats Elevation 4,469 ft / 1,362 m (AMSL)
Location -14.657569° 17.719819°
Runways 1
Magnetic Variation 5.060° W
Sunrise 2017-12-13 04:15:15 UTC / 2017-12-13 05:15:15 Local
Sunset 2017-12-13 17:14:11 UTC / 2017-12-13 18:14:11 Local
Advertisement - Login to hide

Runways

ID Width Length Bearing (true) Bearing (mag) Surface Threshold Offset Overrun Length
13 147 ft / 45 m 11,456 ft / 3,492 m 118.26° 123.32° Asphalt 0 ft / 0 m 197 ft / 60 m
31 147 ft / 45 m 11,456 ft / 3,492 m 298.25° 303.31° Asphalt 0 ft / 0 m 197 ft / 60 m

Map

Weather


0- 5 10 15 20 25 30 35+ Temperature / ° C

Clouds and Precipitation
Forecast for 2017-12-13 18:00 UTC. Updated an hour ago

Ground ~20,000 ft ~40,000 ft Winds

METAR

Not found

TAF

TAF FNME 131045Z 1312/1324 27008KT 9000 FEW022 SCT025 TEMPO 1312/1318 4000 TSRA FEW020 SCT022 FEW023CB

Frequencies

Tower 118.90 MHz AFIS
Warning: Do not use this data for real-world aviation or navigation. No guarantee of current accuracy is given.